createdAt,value
2023-04-22T00:02:08.628Z,12.48
2023-04-22T00:04:38.498Z,7.13
2023-04-22T00:07:06.824Z,6.70
2023-04-22T00:09:35.086Z,7.72
2023-04-22T00:12:03.316Z,8.32
2023-04-22T00:14:31.527Z,7.75
2023-04-22T00:17:00.362Z,9.45
2023-04-22T00:19:28.817Z,7.77
2023-04-22T00:21:58.285Z,9.00
2023-04-22T00:24:26.814Z,9.00
2023-04-22T00:26:54.979Z,7.82
2023-04-22T00:29:23.093Z,7.40
2023-04-22T00:31:51.379Z,8.52
2023-04-22T00:34:19.715Z,11.65
2023-04-22T00:36:48.113Z,9.73
2023-04-22T00:39:18.002Z,9.07
2023-04-22T00:41:47.043Z,7.90
2023-04-22T00:44:15.199Z,6.85
2023-04-22T00:46:43.513Z,8.88
2023-04-22T00:49:11.876Z,8.57
2023-04-22T00:51:40.029Z,9.95
2023-04-22T00:54:08.128Z,10.20
2023-04-22T00:56:40.745Z,10.18
2023-04-22T00:59:10.903Z,9.25
2023-04-22T01:01:39.217Z,9.20
2023-04-22T01:04:07.700Z,8.20
2023-04-22T01:06:37.950Z,7.83
2023-04-22T01:09:06.141Z,8.65
2023-04-22T01:11:34.935Z,11.00
2023-04-22T01:14:04.930Z,8.52
2023-04-22T01:16:35.859Z,6.85
2023-04-22T01:19:04.205Z,8.00
2023-04-22T01:21:34.448Z,9.87
2023-04-22T01:24:04.253Z,7.70
2023-04-22T01:26:33.075Z,10.23
2023-04-22T01:29:03.088Z,8.05
2023-04-22T01:31:31.578Z,7.55
2023-04-22T01:34:00.386Z,8.73
2023-04-22T01:36:28.918Z,7.70
2023-04-22T01:38:57.464Z,10.30
2023-04-22T01:41:29.588Z,8.65
2023-04-22T01:43:59.785Z,6.85
2023-04-22T01:46:29.013Z,9.05
2023-04-22T01:48:57.464Z,8.15
2023-04-22T01:51:25.821Z,7.95
2023-04-22T01:53:54.279Z,7.80
2023-04-22T01:56:25.377Z,7.20
2023-04-22T01:58:54.993Z,9.90
2023-04-22T02:01:23.254Z,7.72
2023-04-22T02:03:51.609Z,10.10
2023-04-22T02:06:20.051Z,11.02
2023-04-22T02:08:48.238Z,8.80
2023-04-22T02:11:19.400Z,9.35
2023-04-22T02:13:47.681Z,8.70
2023-04-22T02:16:17.273Z,10.57
2023-04-22T02:18:46.011Z,8.30
2023-04-22T02:21:14.292Z,11.80
2023-04-22T02:23:42.548Z,8.15
2023-04-22T02:26:11.446Z,10.77
2023-04-22T02:28:39.651Z,10.60
2023-04-22T02:31:08.059Z,11.52
2023-04-22T02:33:37.749Z,12.98
2023-04-22T02:36:09.701Z,11.23
2023-04-22T02:38:38.130Z,12.10
2023-04-22T02:41:06.608Z,12.80
2023-04-22T02:43:37.960Z,12.48
2023-04-22T02:46:06.364Z,14.35
2023-04-22T02:48:34.511Z,11.18
2023-04-22T02:51:07.435Z,13.35
2023-04-22T02:53:36.248Z,13.40
2023-04-22T02:56:05.596Z,11.90
2023-04-22T02:58:33.823Z,13.90
2023-04-22T03:01:02.242Z,14.48
2023-04-22T03:03:30.509Z,13.43
2023-04-22T03:05:58.821Z,11.25
2023-04-22T03:08:28.521Z,15.37
2023-04-22T03:10:58.545Z,12.27
2023-04-22T03:13:26.715Z,12.97
2023-04-22T03:15:54.822Z,13.60
2023-04-22T03:18:23.377Z,13.63
2023-04-22T03:20:51.633Z,12.17
2023-04-22T03:23:23.225Z,12.32
2023-04-22T03:25:53.351Z,14.18
2023-04-22T03:28:21.449Z,13.45
2023-04-22T03:30:50.597Z,13.40
2023-04-22T03:33:19.856Z,14.87
2023-04-22T03:35:55.864Z,15.88
2023-04-22T03:38:24.128Z,17.98
2023-04-22T03:40:54.499Z,16.13
2023-04-22T03:43:34.003Z,17.17
2023-04-22T03:46:09.174Z,18.88
2023-04-22T03:48:41.493Z,17.17
2023-04-22T03:51:15.153Z,14.30
2023-04-22T03:53:43.425Z,16.70
2023-04-22T03:56:17.995Z,15.25
2023-04-22T03:58:47.989Z,13.98
2023-04-22T04:01:17.401Z,14.93
2023-04-22T04:03:50.884Z,15.65
2023-04-22T04:06:20.825Z,15.25
2023-04-22T04:08:49.004Z,13.00
2023-04-22T04:11:18.757Z,13.63
2023-04-22T04:13:47.885Z,14.43
2023-04-22T04:16:20.322Z,13.13
2023-04-22T04:18:54.208Z,15.07
2023-04-22T04:21:24.026Z,15.70
2023-04-22T04:23:54.068Z,20.70
2023-04-22T04:26:28.715Z,14.05
2023-04-22T04:29:06.333Z,12.85
2023-04-22T04:31:35.322Z,13.60
2023-04-22T04:34:04.358Z,12.57
2023-04-22T04:36:32.907Z,16.38
2023-04-22T04:39:12.563Z,13.40
2023-04-22T04:41:42.457Z,14.93
2023-04-22T04:44:12.208Z,12.95
2023-04-22T04:46:41.531Z,14.80
2023-04-22T04:49:12.547Z,13.15
2023-04-22T04:51:51.218Z,14.63
2023-04-22T04:54:19.609Z,13.32
2023-04-22T04:56:49.369Z,13.20
2023-04-22T04:59:17.584Z,15.10
2023-04-22T05:01:46.128Z,15.38
2023-04-22T05:04:15.035Z,18.30
2023-04-22T05:06:45.242Z,16.35
2023-04-22T05:09:15.065Z,14.38
2023-04-22T05:11:44.799Z,14.27
2023-04-22T05:14:19.542Z,14.38
2023-04-22T05:16:48.641Z,12.98
2023-04-22T05:19:17.113Z,15.85
2023-04-22T05:21:46.192Z,18.02
2023-04-22T05:24:15.459Z,12.55
2023-04-22T05:26:44.307Z,11.68
2023-04-22T05:29:17.386Z,10.50
2023-04-22T05:31:47.196Z,12.00
2023-04-22T05:34:15.414Z,11.35
2023-04-22T05:36:44.229Z,11.93
2023-04-22T05:39:12.909Z,11.80
2023-04-22T05:41:41.312Z,12.65
2023-04-22T05:44:12.046Z,12.15
2023-04-22T05:46:41.143Z,11.30
2023-04-22T05:49:10.732Z,12.32
2023-04-22T05:51:57.478Z,10.13
2023-04-22T05:54:30.721Z,9.90
2023-04-22T05:56:59.561Z,9.30
2023-04-22T05:59:28.014Z,8.10
2023-04-22T06:01:56.644Z,9.13
2023-04-22T06:04:27.640Z,10.35
2023-04-22T06:06:56.907Z,9.80
2023-04-22T06:09:25.705Z,10.18
2023-04-22T06:11:53.826Z,14.00
2023-04-22T06:14:21.944Z,8.45
2023-04-22T06:16:52.667Z,11.05
2023-04-22T06:19:21.362Z,9.60
2023-04-22T06:21:51.353Z,9.50
2023-04-22T06:24:19.536Z,10.52
2023-04-22T06:26:47.758Z,8.97
2023-04-22T06:29:16.384Z,10.75
2023-04-22T06:31:44.655Z,8.88
2023-04-22T06:34:12.978Z,9.57
2023-04-22T06:36:41.276Z,9.70
2023-04-22T06:39:11.086Z,8.25
2023-04-22T06:41:57.917Z,8.18
2023-04-22T06:44:44.257Z,8.07
2023-04-22T06:47:32.703Z,8.13
2023-04-22T06:50:11.919Z,11.00
2023-04-22T06:52:49.827Z,7.75
2023-04-22T06:55:20.494Z,6.95
2023-04-22T06:57:48.895Z,6.30
2023-04-22T07:00:17.574Z,9.83
2023-04-22T07:02:45.791Z,9.43
2023-04-22T07:05:14.152Z,8.43
2023-04-22T07:07:42.404Z,7.38
2023-04-22T07:10:18.319Z,7.60
2023-04-22T07:13:07.871Z,7.63
2023-04-22T07:15:36.337Z,5.60
2023-04-22T07:18:04.543Z,6.60
2023-04-22T07:20:32.713Z,6.28
2023-04-22T07:23:00.858Z,9.80
2023-04-22T07:25:29.183Z,7.60
2023-04-22T07:27:57.637Z,8.27
2023-04-22T07:30:27.431Z,7.95
2023-04-22T07:32:55.661Z,7.68
2023-04-22T07:35:23.982Z,5.93
2023-04-22T07:37:52.240Z,7.18
2023-04-22T07:40:20.798Z,4.90
2023-04-22T07:42:48.878Z,6.50
2023-04-22T07:45:17.198Z,5.75
2023-04-22T07:47:46.874Z,6.40
2023-04-22T07:50:15.149Z,7.13
2023-04-22T07:52:43.293Z,3.83
2023-04-22T07:55:11.864Z,3.70
2023-04-22T07:57:40.026Z,6.30
2023-04-22T08:00:09.817Z,5.45
2023-04-22T08:02:41.072Z,5.10
2023-04-22T08:05:11.717Z,8.15
2023-04-22T08:07:40.121Z,8.02
2023-04-22T08:10:09.318Z,3.03
2023-04-22T08:12:37.519Z,3.90
2023-04-22T08:15:06.766Z,3.50
2023-04-22T08:17:35.195Z,3.22
2023-04-22T08:20:06.602Z,5.60
2023-04-22T08:22:38.716Z,2.47
2023-04-22T08:25:08.512Z,2.10
2023-04-22T08:27:36.928Z,2.70
2023-04-22T08:30:06.387Z,4.10
2023-04-22T08:32:34.702Z,3.17
2023-04-22T08:35:05.276Z,3.80
2023-04-22T08:37:34.942Z,3.00
2023-04-22T08:40:05.152Z,4.90
2023-04-22T08:42:34.122Z,2.40
2023-04-22T08:45:04.347Z,2.45
2023-04-22T08:47:33.946Z,3.17
2023-04-22T08:50:04.490Z,3.70
2023-04-22T08:52:33.137Z,3.58
2023-04-22T08:55:02.036Z,5.97
2023-04-22T08:57:32.402Z,6.35
2023-04-22T09:00:01.415Z,4.28
2023-04-22T09:02:32.990Z,5.10
2023-04-22T09:05:03.600Z,7.40
2023-04-22T09:07:33.274Z,19.25
2023-04-22T09:10:01.428Z,9.90
2023-04-22T09:12:31.333Z,7.53
2023-04-22T09:14:59.623Z,5.88
2023-04-22T09:17:33.495Z,6.07
2023-04-22T09:20:03.070Z,2.78
2023-04-22T09:22:39.775Z,3.25
2023-04-22T09:25:16.912Z,2.10
2023-04-22T09:27:53.571Z,1.80
2023-04-22T09:30:25.697Z,1.40
2023-04-22T09:32:56.031Z,1.50
2023-04-22T09:35:32.034Z,3.15
2023-04-22T09:38:01.663Z,4.60
2023-04-22T09:40:31.485Z,4.35
2023-04-22T09:43:04.531Z,7.60
2023-04-22T09:45:34.501Z,1.70
2023-04-22T09:48:05.330Z,3.30
2023-04-22T09:50:33.710Z,3.53
2023-04-22T09:53:04.195Z,4.60
2023-04-22T09:55:34.521Z,3.47
2023-04-22T09:58:09.660Z,1.73
2023-04-22T10:00:41.861Z,2.80
2023-04-22T10:03:11.047Z,2.50
2023-04-22T10:05:41.046Z,2.50
2023-04-22T10:08:10.472Z,3.00
2023-04-22T10:10:39.192Z,8.65
2023-04-22T10:13:09.504Z,4.50
2023-04-22T10:15:41.432Z,4.50
2023-04-22T10:18:14.620Z,3.20
2023-04-22T10:20:44.369Z,2.30
2023-04-22T10:23:15.375Z,2.40
2023-04-22T10:25:43.957Z,3.50
2023-04-22T10:28:14.424Z,5.20
2023-04-22T10:30:42.985Z,2.58
2023-04-22T10:33:39.910Z,1.60
2023-04-22T10:36:17.193Z,3.70
2023-04-22T10:39:23.741Z,2.63
2023-04-22T10:41:57.997Z,2.15
2023-04-22T10:44:45.810Z,3.50
2023-04-22T10:47:25.071Z,2.15
2023-04-22T10:49:53.449Z,2.42
2023-04-22T10:52:30.178Z,4.10
2023-04-22T10:55:02.717Z,3.10
2023-04-22T10:57:40.233Z,4.63
2023-04-22T11:03:14.760Z,5.65
2023-04-22T11:05:43.588Z,2.50
2023-04-22T11:08:20.574Z,1.67
2023-04-22T11:10:50.587Z,4.03
2023-04-22T11:13:21.220Z,4.03
2023-04-22T11:15:54.096Z,6.30
2023-04-22T11:18:23.670Z,3.63
2023-04-22T11:20:53.589Z,4.40
2023-04-22T11:23:25.043Z,2.92
2023-04-22T11:25:57.761Z,4.05
2023-04-22T11:28:26.071Z,5.97
2023-04-22T11:31:03.488Z,3.38
2023-04-22T11:33:33.120Z,2.95
2023-04-22T11:36:01.530Z,2.27
2023-04-22T11:38:30.465Z,4.53
2023-04-22T11:40:59.737Z,3.50
2023-04-22T11:43:27.977Z,4.80
2023-04-22T11:45:58.598Z,6.18
2023-04-22T11:48:26.853Z,2.50
2023-04-22T11:51:11.093Z,2.10
2023-04-22T11:53:41.182Z,2.55
2023-04-22T11:56:09.416Z,1.90
2023-04-22T11:58:41.823Z,3.90
2023-04-22T12:01:14.801Z,2.97
2023-04-22T12:03:43.230Z,5.45
2023-04-22T12:06:11.490Z,4.75
2023-04-22T12:08:42.392Z,3.95
2023-04-22T12:11:12.791Z,3.20
2023-04-22T12:13:44.020Z,1.88
2023-04-22T12:16:15.129Z,3.25
2023-04-22T12:18:50.112Z,3.42
2023-04-22T12:21:21.230Z,2.50
2023-04-22T12:23:50.899Z,5.22
2023-04-22T12:26:22.577Z,3.80
2023-04-22T12:28:52.362Z,6.13
2023-04-22T12:31:22.392Z,5.70
2023-04-22T12:33:51.002Z,4.00
2023-04-22T12:36:20.946Z,4.35
2023-04-22T12:38:49.431Z,5.40
2023-04-22T12:41:17.602Z,3.28
2023-04-22T12:43:45.931Z,2.90
2023-04-22T12:46:14.166Z,2.08
2023-04-22T12:48:43.647Z,6.47
2023-04-22T12:51:11.741Z,2.13
2023-04-22T12:53:39.850Z,2.92
2023-04-22T12:56:08.024Z,3.73
2023-04-22T12:58:36.252Z,5.55
2023-04-22T13:01:04.446Z,3.33
2023-04-22T13:03:32.684Z,2.50
2023-04-22T13:06:02.398Z,3.28
2023-04-22T13:08:30.803Z,3.50
2023-04-22T13:11:00.113Z,3.88
2023-04-22T13:13:28.175Z,4.72
2023-04-22T13:15:56.920Z,6.60
2023-04-22T13:18:25.186Z,2.37
2023-04-22T13:20:55.007Z,3.65
2023-04-22T13:23:25.875Z,3.63
2023-04-22T13:25:54.353Z,2.90
2023-04-22T13:28:22.662Z,2.65
2023-04-22T13:30:50.953Z,9.07
2023-04-22T13:33:19.229Z,6.28
2023-04-22T13:35:47.333Z,7.03
2023-04-22T13:38:15.485Z,4.53
2023-04-22T13:40:45.277Z,6.72
2023-04-22T13:43:13.529Z,4.50
2023-04-22T13:45:42.867Z,5.50
2023-04-22T13:48:11.126Z,3.17
2023-04-22T13:50:42.545Z,5.63
2023-04-22T13:53:11.822Z,2.95
2023-04-22T13:55:40.742Z,5.20
2023-04-22T13:58:10.738Z,2.38
2023-04-22T14:00:38.894Z,2.90
2023-04-22T14:03:07.277Z,2.33
2023-04-22T14:05:35.692Z,5.00
2023-04-22T14:08:03.984Z,3.07
2023-04-22T14:10:32.154Z,1.98
2023-04-22T14:13:00.448Z,2.30
2023-04-22T14:15:30.083Z,2.25
2023-04-22T14:17:58.297Z,3.65
2023-04-22T14:20:26.416Z,5.00
2023-04-22T14:22:54.668Z,2.00
2023-04-22T14:25:23.010Z,5.07
2023-04-22T14:27:51.779Z,3.92
2023-04-22T14:30:21.750Z,3.70
2023-04-22T14:32:51.448Z,6.93
2023-04-22T14:35:19.854Z,2.40
2023-04-22T14:37:48.016Z,2.70
2023-04-22T14:40:16.559Z,2.03
2023-04-22T14:42:44.870Z,3.58
2023-04-22T14:45:14.535Z,2.90
2023-04-22T14:47:42.744Z,4.13
2023-04-22T14:50:12.608Z,3.20
2023-04-22T14:52:40.971Z,3.42
2023-04-22T14:55:21.784Z,4.70
2023-04-22T14:57:51.354Z,3.15
2023-04-22T15:00:19.884Z,5.35
2023-04-22T15:02:48.196Z,2.60
2023-04-22T15:05:17.868Z,4.57
2023-04-22T15:07:46.038Z,4.65
2023-04-22T15:10:14.350Z,3.30
2023-04-22T15:12:42.483Z,4.00
2023-04-22T15:15:13.246Z,5.80
2023-04-22T15:17:41.810Z,5.75
2023-04-22T15:20:11.528Z,6.57
2023-04-22T15:22:43.652Z,7.35
2023-04-22T15:25:12.405Z,3.88
2023-04-22T15:27:41.110Z,3.05
2023-04-22T15:30:10.857Z,2.53
2023-04-22T15:32:39.970Z,3.60
2023-04-22T15:35:09.000Z,6.00
2023-04-22T15:37:37.262Z,6.60
2023-04-22T15:40:10.020Z,4.20
2023-04-22T15:42:38.198Z,2.58
2023-04-22T15:45:07.449Z,2.95
2023-04-22T15:47:36.303Z,3.70
2023-04-22T15:50:08.840Z,3.58
2023-04-22T15:52:38.448Z,4.13
2023-04-22T15:55:09.305Z,2.50
2023-04-22T15:57:37.576Z,3.15
2023-04-22T16:00:11.943Z,3.80
2023-04-22T16:02:45.282Z,3.45
2023-04-22T16:05:14.362Z,6.00
2023-04-22T16:07:42.748Z,3.70
2023-04-22T16:10:13.055Z,3.13
2023-04-22T16:12:41.201Z,4.63
2023-04-22T16:15:11.694Z,5.60
2023-04-22T16:17:39.948Z,5.35
2023-04-22T16:20:09.806Z,5.72
2023-04-22T16:22:38.069Z,8.40
2023-04-22T16:25:07.818Z,5.43
2023-04-22T16:27:37.469Z,5.82
2023-04-22T16:30:06.821Z,7.78
2023-04-22T16:32:35.174Z,7.20
2023-04-22T16:35:05.396Z,7.15
2023-04-22T16:37:35.115Z,7.80
2023-04-22T16:40:06.161Z,5.43
2023-04-22T16:42:34.451Z,6.70
2023-04-22T16:45:04.122Z,4.70
2023-04-22T16:47:32.447Z,7.70
2023-04-22T16:50:00.614Z,6.55
2023-04-22T16:52:29.151Z,4.65
2023-04-22T16:54:57.429Z,6.70
2023-04-22T16:57:25.633Z,6.03
2023-04-22T16:59:53.984Z,5.13
2023-04-22T17:02:23.797Z,5.10
2023-04-22T17:04:52.414Z,6.30
2023-04-22T17:07:20.566Z,8.63
2023-04-22T17:09:48.937Z,6.10
2023-04-22T17:12:17.100Z,7.38
2023-04-22T17:14:45.384Z,13.02
2023-04-22T17:17:13.770Z,12.25
2023-04-22T17:19:44.064Z,10.00
2023-04-22T17:22:13.012Z,8.35
2023-04-22T17:24:41.604Z,6.95
2023-04-22T17:27:09.951Z,6.97
2023-04-22T17:29:38.166Z,4.78
2023-04-22T17:32:06.710Z,6.05
2023-04-22T17:34:34.984Z,6.35
2023-04-22T17:37:07.119Z,5.65
2023-04-22T17:39:35.288Z,6.30
2023-04-22T17:42:04.840Z,5.53
2023-04-22T17:44:33.010Z,5.43
2023-04-22T17:47:01.532Z,6.10
2023-04-22T17:49:29.692Z,4.97
2023-04-22T17:51:57.794Z,3.20
2023-04-22T17:54:27.470Z,4.90
2023-04-22T17:56:55.753Z,3.65
2023-04-22T17:59:24.144Z,4.65
2023-04-22T18:01:52.875Z,2.30
2023-04-22T18:04:21.067Z,2.50
2023-04-22T18:06:49.321Z,2.88
2023-04-22T18:09:17.518Z,3.90
2023-04-22T18:11:47.196Z,2.15
2023-04-22T18:14:15.718Z,3.35
2023-04-22T18:16:43.887Z,2.23
2023-04-22T18:19:12.066Z,1.80
2023-04-22T18:21:49.593Z,2.20
2023-04-22T18:24:21.253Z,1.70
2023-04-22T18:26:51.028Z,4.20
2023-04-22T18:29:19.314Z,2.30
2023-04-22T18:31:47.660Z,3.00
2023-04-22T18:34:16.461Z,2.05
2023-04-22T18:36:44.579Z,1.95
2023-04-22T18:39:12.764Z,2.17
2023-04-22T18:41:42.776Z,2.42
2023-04-22T18:44:12.314Z,2.20
2023-04-22T18:46:40.570Z,2.80
2023-04-22T18:49:08.779Z,2.15
2023-04-22T18:51:37.380Z,4.28
2023-04-22T18:54:07.929Z,5.50
2023-04-22T18:56:36.166Z,4.50
2023-04-22T18:59:04.371Z,4.43
2023-04-22T19:01:34.905Z,4.80
2023-04-22T19:04:03.948Z,6.22
2023-04-22T19:06:32.149Z,4.40
2023-04-22T19:09:00.547Z,8.73
2023-04-22T19:11:29.182Z,8.90
2023-04-22T19:13:57.715Z,5.18
2023-04-22T19:16:26.547Z,4.28
2023-04-22T19:18:56.376Z,4.30
2023-04-22T19:21:25.508Z,6.28
2023-04-22T19:23:59.382Z,6.10
2023-04-22T19:26:29.000Z,5.25
2023-04-22T19:28:57.241Z,4.43
2023-04-22T19:31:26.231Z,3.95
2023-04-22T19:33:55.909Z,4.90
2023-04-22T19:36:24.096Z,5.35
2023-04-22T19:38:52.260Z,4.82
2023-04-22T19:41:20.456Z,4.82
2023-04-22T19:43:48.830Z,5.70
2023-04-22T19:46:17.003Z,6.25
2023-04-22T19:48:45.814Z,3.67
2023-04-22T19:51:15.543Z,4.50
2023-04-22T19:53:44.397Z,8.35
2023-04-22T19:56:12.981Z,4.83
2023-04-22T19:58:42.194Z,5.75
2023-04-22T20:01:10.742Z,3.90
2023-04-22T20:03:39.351Z,5.15
2023-04-22T20:06:08.253Z,7.55
2023-04-22T20:08:41.783Z,4.78
2023-04-22T20:11:11.861Z,4.88
2023-04-22T20:13:42.174Z,6.73
2023-04-22T20:16:10.922Z,6.30
2023-04-22T20:18:39.458Z,5.43
2023-04-22T20:21:08.850Z,4.75
2023-04-22T20:23:39.080Z,7.25
2023-04-22T20:26:07.597Z,7.30
2023-04-22T20:28:45.137Z,7.97
2023-04-22T20:31:14.299Z,6.18
2023-04-22T20:33:42.891Z,9.45
2023-04-22T20:36:11.563Z,9.90
2023-04-22T20:41:13.272Z,7.80
2023-04-22T20:43:42.247Z,7.18
2023-04-22T20:46:10.920Z,5.10
2023-04-22T20:48:39.193Z,4.57
2023-04-22T20:51:07.527Z,5.93
2023-04-22T20:53:36.297Z,3.72
2023-04-22T20:56:07.789Z,4.93
2023-04-22T20:58:35.947Z,9.05
2023-04-22T21:01:04.322Z,5.87
2023-04-22T21:03:34.560Z,4.22
2023-04-22T21:06:03.557Z,4.70
2023-04-22T21:08:35.412Z,9.30
2023-04-22T21:11:05.358Z,8.18
2023-04-22T21:13:34.087Z,8.77
2023-04-22T21:16:04.679Z,8.50
2023-04-22T21:18:34.659Z,12.50
2023-04-22T21:21:04.304Z,11.30
2023-04-22T21:23:33.401Z,12.40
2023-04-22T21:26:04.136Z,14.43
2023-04-22T21:28:34.346Z,13.50
2023-04-22T21:31:03.071Z,16.05
2023-04-22T21:33:32.841Z,15.35
2023-04-22T21:36:01.017Z,15.60
2023-04-22T21:38:30.062Z,17.65
2023-04-22T21:40:58.208Z,19.00
2023-04-22T21:43:26.334Z,19.52
2023-04-22T21:45:55.818Z,21.77
2023-04-22T21:48:23.971Z,19.15
2023-04-22T21:50:53.913Z,18.40
2023-04-22T21:53:22.325Z,20.15
2023-04-22T21:55:50.447Z,21.60
2023-04-22T21:58:18.524Z,24.60
2023-04-22T22:00:46.606Z,24.08
2023-04-22T22:03:16.381Z,26.77
2023-04-22T22:05:44.760Z,26.33
2023-04-22T22:08:13.894Z,25.83
2023-04-22T22:10:42.922Z,30.30
2023-04-22T22:13:11.340Z,29.57
2023-04-22T22:15:39.444Z,28.50
2023-04-22T22:18:07.758Z,27.85
2023-04-22T22:20:37.685Z,28.52
2023-04-22T22:23:05.951Z,30.33
2023-04-22T22:25:34.163Z,32.33
2023-04-22T22:28:02.322Z,32.30
2023-04-22T22:30:31.182Z,32.27
2023-04-22T22:32:59.309Z,31.38
2023-04-22T22:35:27.712Z,34.17
2023-04-22T22:37:57.239Z,30.17
2023-04-22T22:40:25.454Z,30.83
2023-04-22T22:42:53.633Z,30.73
2023-04-22T22:45:21.770Z,32.45
2023-04-22T22:47:50.154Z,32.80
2023-04-22T22:50:18.411Z,29.23
2023-04-22T22:52:46.658Z,31.10
2023-04-22T22:55:16.193Z,30.05
2023-04-22T22:57:44.382Z,29.98
2023-04-22T23:00:13.699Z,29.35
2023-04-22T23:02:42.160Z,28.45
2023-04-22T23:05:11.095Z,30.20
2023-04-22T23:07:39.324Z,31.85
2023-04-22T23:10:08.974Z,28.77
2023-04-22T23:12:38.667Z,29.65
2023-04-22T23:15:08.845Z,26.33
2023-04-22T23:17:37.248Z,31.27
2023-04-22T23:20:08.142Z,29.40
2023-04-22T23:22:38.621Z,31.58
2023-04-22T23:25:08.457Z,30.48
2023-04-22T23:27:38.294Z,31.55
2023-04-22T23:30:07.886Z,30.85
2023-04-22T23:32:37.101Z,31.80
2023-04-22T23:35:07.792Z,29.88
2023-04-22T23:37:38.112Z,31.42
2023-04-22T23:40:08.137Z,31.10
2023-04-22T23:42:36.248Z,30.58
2023-04-22T23:45:06.373Z,29.30
2023-04-22T23:47:34.544Z,28.20
2023-04-22T23:50:02.994Z,28.63
2023-04-22T23:52:31.180Z,30.70
2023-04-22T23:54:59.835Z,32.08
2023-04-22T23:57:28.395Z,31.48
2023-04-22T23:59:57.085Z,32.47
